Terminal Aerodrome Forecast
Issued by NWS Tulsa, OK

Home | Current Version | Previous Version | Text Only | Print | Product List | Glossary On
Versions: 1 2 3 4 5 6 7 8 9 10 11 12 13 14 15 16 17
721
FTUS44 KTSA 300829 AAA
TAFFSM
TAF AMD
KFSM 300829Z 3008/3106 27009KT P6SM SCT090
     FM300930 26011KT P6SM BKN030
     FM301500 25012G20KT P6SM OVC025
     FM302100 26013G20KT P6SM OVC050
     FM310300 28006KT P6SM SKC=

USA.gov is the U.S. government's official web portal to all federal, state and local government web resources and services.